Terminal Aerodrome Forecast
Issued by NWS Charleston, WV

Current Version | Previous Version | Text Only | Print | Product List | Glossary Off
Versions: 1 2 3 4 5 6 7 8 9 10 11 12 13 14 15 16 17 18 19 20 21 22 23 24 25 26 27 28 29 30 31 32

000
FTUS41 KRLX 260800 AAA
TAFPKB
TAF AMD
KPKB 260846Z 2609/2706 VRB03KT P6SM SCT060
     FM261300 19006KT P6SM VCSH OVC035
     FM261500 21009G15KT P6SM SHRA VCTS OVC035CB
     FM261700 28009G15KT 6SM SHRA OVC025
     FM261900 30009G15KT 3SM SHRA OVC015
     FM262200 33008G13KT 4SM -SHRA OVC015
     FM270200 31006KT P6SM OVC015
     FM270500 30006KT P6SM BKN030=

USA.gov is the U.S. government's official web portal to all federal, state and local government web resources and services.